sensor_id;sensor_type;location;lat;lon;timestamp;temperature;humidity
68257;DHT22;55069;51.568;4.656;2022-07-29T00:01:36;16.72;67.97
68257;DHT22;55069;51.568;4.656;2022-07-29T00:04:02;16.68;68.67
68257;DHT22;55069;51.568;4.656;2022-07-29T00:06:27;16.69;68.47
68257;DHT22;55069;51.568;4.656;2022-07-29T00:08:53;16.65;68.62
68257;DHT22;55069;51.568;4.656;2022-07-29T00:11:18;16.69;68.15
68257;DHT22;55069;51.568;4.656;2022-07-29T00:13:44;16.70;68.42
68257;DHT22;55069;51.568;4.656;2022-07-29T00:16:09;16.68;68.41
68257;DHT22;55069;51.568;4.656;2022-07-29T00:18:35;16.72;68.57
68257;DHT22;55069;51.568;4.656;2022-07-29T00:21:01;16.75;68.37
68257;DHT22;55069;51.568;4.656;2022-07-29T00:23:26;16.72;68.80
68257;DHT22;55069;51.568;4.656;2022-07-29T00:25:52;16.70;68.59
68257;DHT22;55069;51.568;4.656;2022-07-29T00:28:18;16.77;67.98
68257;DHT22;55069;51.568;4.656;2022-07-29T00:30:44;16.73;68.08
68257;DHT22;55069;51.568;4.656;2022-07-29T00:33:10;16.65;68.48
68257;DHT22;55069;51.568;4.656;2022-07-29T00:35:35;16.66;68.02
68257;DHT22;55069;51.568;4.656;2022-07-29T00:38:15;16.59;68.42
68257;DHT22;55069;51.568;4.656;2022-07-29T00:40:42;16.56;68.54
68257;DHT22;55069;51.568;4.656;2022-07-29T00:43:08;16.56;68.74
68257;DHT22;55069;51.568;4.656;2022-07-29T00:45:34;16.58;68.67
68257;DHT22;55069;51.568;4.656;2022-07-29T00:47:59;16.55;68.73
68257;DHT22;55069;51.568;4.656;2022-07-29T00:50:25;16.55;68.66
68257;DHT22;55069;51.568;4.656;2022-07-29T00:52:52;16.52;69.08
68257;DHT22;55069;51.568;4.656;2022-07-29T00:55:18;16.47;69.38
68257;DHT22;55069;51.568;4.656;2022-07-29T00:57:44;16.40;69.57
68257;DHT22;55069;51.568;4.656;2022-07-29T01:00:14;16.40;69.51
68257;DHT22;55069;51.568;4.656;2022-07-29T01:02:40;16.35;69.70
68257;DHT22;55069;51.568;4.656;2022-07-29T01:05:06;16.32;69.85
68257;DHT22;55069;51.568;4.656;2022-07-29T01:07:34;16.38;69.63
68257;DHT22;55069;51.568;4.656;2022-07-29T01:10:02;16.32;70.22
68257;DHT22;55069;51.568;4.656;2022-07-29T01:12:28;16.29;70.64
68257;DHT22;55069;51.568;4.656;2022-07-29T01:14:58;16.25;70.75
68257;DHT22;55069;51.568;4.656;2022-07-29T01:17:27;16.29;70.73
68257;DHT22;55069;51.568;4.656;2022-07-29T01:25:22;16.25;71.25
68257;DHT22;55069;51.568;4.656;2022-07-29T01:30:41;16.15;71.06
68257;DHT22;55069;51.568;4.656;2022-07-29T01:33:11;16.15;71.89
68257;DHT22;55069;51.568;4.656;2022-07-29T01:36:01;16.07;71.90
68257;DHT22;55069;51.568;4.656;2022-07-29T01:38:30;16.03;71.93
68257;DHT22;55069;51.568;4.656;2022-07-29T01:41:06;16.04;71.62
68257;DHT22;55069;51.568;4.656;2022-07-29T01:44:02;16.07;71.30
68257;DHT22;55069;51.568;4.656;2022-07-29T01:46:35;16.14;71.41
68257;DHT22;55069;51.568;4.656;2022-07-29T01:49:11;16.04;71.44
68257;DHT22;55069;51.568;4.656;2022-07-29T01:51:47;16.03;71.85
68257;DHT22;55069;51.568;4.656;2022-07-29T01:56:43;15.97;72.01
68257;DHT22;55069;51.568;4.656;2022-07-29T01:59:10;16.00;71.83
68257;DHT22;55069;51.568;4.656;2022-07-29T02:01:39;16.00;72.03
68257;DHT22;55069;51.568;4.656;2022-07-29T02:04:07;15.98;72.44
68257;DHT22;55069;51.568;4.656;2022-07-29T02:06:37;15.93;72.38
68257;DHT22;55069;51.568;4.656;2022-07-29T02:09:04;15.91;72.57
68257;DHT22;55069;51.568;4.656;2022-07-29T02:11:33;15.90;72.49
68257;DHT22;55069;51.568;4.656;2022-07-29T02:14:00;15.87;72.90
68257;DHT22;55069;51.568;4.656;2022-07-29T02:16:26;15.80;73.31
68257;DHT22;55069;51.568;4.656;2022-07-29T02:18:53;15.77;73.26
68257;DHT22;55069;51.568;4.656;2022-07-29T02:21:23;15.79;73.49
68257;DHT22;55069;51.568;4.656;2022-07-29T02:23:50;15.79;73.17
68257;DHT22;55069;51.568;4.656;2022-07-29T02:26:17;15.77;73.70
68257;DHT22;55069;51.568;4.656;2022-07-29T02:28:44;15.73;73.50
68257;DHT22;55069;51.568;4.656;2022-07-29T02:31:12;15.73;73.76
68257;DHT22;55069;51.568;4.656;2022-07-29T02:33:40;15.74;73.88
68257;DHT22;55069;51.568;4.656;2022-07-29T02:36:06;15.67;73.91
68257;DHT22;55069;51.568;4.656;2022-07-29T02:38:34;15.63;74.04
68257;DHT22;55069;51.568;4.656;2022-07-29T02:41:19;15.60;74.41
68257;DHT22;55069;51.568;4.656;2022-07-29T02:43:48;15.55;74.42
68257;DHT22;55069;51.568;4.656;2022-07-29T02:46:21;15.53;74.33
68257;DHT22;55069;51.568;4.656;2022-07-29T02:49:23;15.53;74.86
68257;DHT22;55069;51.568;4.656;2022-07-29T02:51:45;15.48;75.26
68257;DHT22;55069;51.568;4.656;2022-07-29T02:54:23;15.50;74.96
68257;DHT22;55069;51.568;4.656;2022-07-29T02:56:51;15.49;75.29
68257;DHT22;55069;51.568;4.656;2022-07-29T02:59:24;15.40;75.54
68257;DHT22;55069;51.568;4.656;2022-07-29T03:01:53;15.42;75.31
68257;DHT22;55069;51.568;4.656;2022-07-29T03:04:22;15.38;75.57
68257;DHT22;55069;51.568;4.656;2022-07-29T03:06:51;15.35;75.59
68257;DHT22;55069;51.568;4.656;2022-07-29T03:09:18;15.31;75.45
68257;DHT22;55069;51.568;4.656;2022-07-29T03:11:44;15.27;75.96
68257;DHT22;55069;51.568;4.656;2022-07-29T03:14:10;15.31;75.37
68257;DHT22;55069;51.568;4.656;2022-07-29T03:16:37;15.28;76.11
68257;DHT22;55069;51.568;4.656;2022-07-29T03:19:03;15.25;76.14
68257;DHT22;55069;51.568;4.656;2022-07-29T03:21:30;15.22;75.87
68257;DHT22;55069;51.568;4.656;2022-07-29T03:23:56;15.19;76.08
68257;DHT22;55069;51.568;4.656;2022-07-29T03:26:21;15.17;76.07
68257;DHT22;55069;51.568;4.656;2022-07-29T03:28:47;15.19;76.31
68257;DHT22;55069;51.568;4.656;2022-07-29T03:31:13;15.24;75.63
68257;DHT22;55069;51.568;4.656;2022-07-29T03:33:38;15.19;75.95
68257;DHT22;55069;51.568;4.656;2022-07-29T03:36:04;15.25;75.64
68257;DHT22;55069;51.568;4.656;2022-07-29T03:38:33;15.19;75.61
68257;DHT22;55069;51.568;4.656;2022-07-29T03:41:03;15.24;75.46
68257;DHT22;55069;51.568;4.656;2022-07-29T03:43:32;15.24;75.14
68257;DHT22;55069;51.568;4.656;2022-07-29T03:45:59;15.29;75.10
68257;DHT22;55069;51.568;4.656;2022-07-29T03:48:26;15.27;75.22
68257;DHT22;55069;51.568;4.656;2022-07-29T03:50:55;15.32;75.64
68257;DHT22;55069;51.568;4.656;2022-07-29T03:53:21;15.24;75.55
68257;DHT22;55069;51.568;4.656;2022-07-29T03:55:50;15.21;75.32
68257;DHT22;55069;51.568;4.656;2022-07-29T03:58:18;15.18;75.29
68257;DHT22;55069;51.568;4.656;2022-07-29T04:00:44;15.07;75.59
68257;DHT22;55069;51.568;4.656;2022-07-29T04:03:11;15.08;76.42
68257;DHT22;55069;51.568;4.656;2022-07-29T04:05:37;15.01;76.39
68257;DHT22;55069;51.568;4.656;2022-07-29T04:08:03;14.95;76.26
68257;DHT22;55069;51.568;4.656;2022-07-29T04:10:29;15.02;76.40
68257;DHT22;55069;51.568;4.656;2022-07-29T04:12:54;14.95;76.17
68257;DHT22;55069;51.568;4.656;2022-07-29T04:15:21;14.95;76.65
68257;DHT22;55069;51.568;4.656;2022-07-29T04:17:47;14.94;76.93
68257;DHT22;55069;51.568;4.656;2022-07-29T04:20:12;14.95;76.80
68257;DHT22;55069;51.568;4.656;2022-07-29T04:22:39;14.92;76.57
68257;DHT22;55069;51.568;4.656;2022-07-29T04:25:05;14.98;76.57
68257;DHT22;55069;51.568;4.656;2022-07-29T04:27:31;15.00;76.63
68257;DHT22;55069;51.568;4.656;2022-07-29T04:29:57;14.94;77.14
68257;DHT22;55069;51.568;4.656;2022-07-29T04:32:24;14.95;76.87
68257;DHT22;55069;51.568;4.656;2022-07-29T04:34:50;15.05;75.85
68257;DHT22;55069;51.568;4.656;2022-07-29T04:37:15;15.05;76.56
68257;DHT22;55069;51.568;4.656;2022-07-29T04:39:41;15.08;76.34
68257;DHT22;55069;51.568;4.656;2022-07-29T04:42:07;15.07;76.85
68257;DHT22;55069;51.568;4.656;2022-07-29T04:44:33;15.09;76.54
68257;DHT22;55069;51.568;4.656;2022-07-29T04:46:58;15.14;76.52
68257;DHT22;55069;51.568;4.656;2022-07-29T04:49:24;15.09;76.62
68257;DHT22;55069;51.568;4.656;2022-07-29T04:51:50;15.11;76.56
68257;DHT22;55069;51.568;4.656;2022-07-29T04:54:17;15.17;75.99
68257;DHT22;55069;51.568;4.656;2022-07-29T04:56:43;15.19;76.51
68257;DHT22;55069;51.568;4.656;2022-07-29T04:59:09;15.19;76.35
68257;DHT22;55069;51.568;4.656;2022-07-29T05:01:35;15.14;76.55
68257;DHT22;55069;51.568;4.656;2022-07-29T05:04:01;15.18;76.71
68257;DHT22;55069;51.568;4.656;2022-07-29T05:06:28;15.22;75.96
68257;DHT22;55069;51.568;4.656;2022-07-29T05:08:53;15.19;76.79
68257;DHT22;55069;51.568;4.656;2022-07-29T05:11:19;15.24;76.28
68257;DHT22;55069;51.568;4.656;2022-07-29T05:13:45;15.24;76.56
68257;DHT22;55069;51.568;4.656;2022-07-29T05:16:11;15.29;75.97
68257;DHT22;55069;51.568;4.656;2022-07-29T05:18:38;15.39;75.45
68257;DHT22;55069;51.568;4.656;2022-07-29T05:21:04;15.36;75.09
68257;DHT22;55069;51.568;4.656;2022-07-29T05:23:30;15.40;75.90
68257;DHT22;55069;51.568;4.656;2022-07-29T05:25:56;15.43;75.75
68257;DHT22;55069;51.568;4.656;2022-07-29T05:28:22;15.48;75.80
68257;DHT22;55069;51.568;4.656;2022-07-29T05:30:47;15.43;75.33
68257;DHT22;55069;51.568;4.656;2022-07-29T05:33:14;15.50;75.19
68257;DHT22;55069;51.568;4.656;2022-07-29T05:35:40;15.55;75.05
68257;DHT22;55069;51.568;4.656;2022-07-29T05:38:06;15.55;75.11
68257;DHT22;55069;51.568;4.656;2022-07-29T05:40:32;15.57;74.92
68257;DHT22;55069;51.568;4.656;2022-07-29T05:42:59;15.56;75.27
68257;DHT22;55069;51.568;4.656;2022-07-29T05:45:25;15.52;74.80
68257;DHT22;55069;51.568;4.656;2022-07-29T05:47:51;15.48;75.59
68257;DHT22;55069;51.568;4.656;2022-07-29T05:50:16;15.45;75.79
68257;DHT22;55069;51.568;4.656;2022-07-29T05:52:42;15.53;75.50
68257;DHT22;55069;51.568;4.656;2022-07-29T05:55:08;15.63;74.64
68257;DHT22;55069;51.568;4.656;2022-07-29T05:57:34;15.62;75.12
68257;DHT22;55069;51.568;4.656;2022-07-29T06:00:00;15.71;74.30
68257;DHT22;55069;51.568;4.656;2022-07-29T06:02:26;15.74;74.76
68257;DHT22;55069;51.568;4.656;2022-07-29T06:04:52;15.80;74.74
68257;DHT22;55069;51.568;4.656;2022-07-29T06:07:18;15.76;75.14
68257;DHT22;55069;51.568;4.656;2022-07-29T06:09:44;15.84;74.82
68257;DHT22;55069;51.568;4.656;2022-07-29T06:12:10;15.94;74.87
68257;DHT22;55069;51.568;4.656;2022-07-29T06:14:36;15.94;74.58
68257;DHT22;55069;51.568;4.656;2022-07-29T06:17:04;15.94;74.66
68257;DHT22;55069;51.568;4.656;2022-07-29T06:19:31;15.97;74.35
68257;DHT22;55069;51.568;4.656;2022-07-29T06:21:59;16.08;74.46
68257;DHT22;55069;51.568;4.656;2022-07-29T06:24:24;16.08;74.09
68257;DHT22;55069;51.568;4.656;2022-07-29T06:26:50;16.15;73.64
68257;DHT22;55069;51.568;4.656;2022-07-29T06:29:16;16.18;73.56
68257;DHT22;55069;51.568;4.656;2022-07-29T06:31:42;16.18;74.26
68257;DHT22;55069;51.568;4.656;2022-07-29T06:34:08;16.24;74.09
68257;DHT22;55069;51.568;4.656;2022-07-29T06:36:35;16.34;74.16
68257;DHT22;55069;51.568;4.656;2022-07-29T06:39:04;16.32;73.55
68257;DHT22;55069;51.568;4.656;2022-07-29T06:41:30;16.35;73.51
68257;DHT22;55069;51.568;4.656;2022-07-29T06:44:00;16.41;73.15
68257;DHT22;55069;51.568;4.656;2022-07-29T06:46:26;16.51;72.70
68257;DHT22;55069;51.568;4.656;2022-07-29T06:48:53;16.61;71.92
68257;DHT22;55069;51.568;4.656;2022-07-29T06:51:19;16.68;72.26
68257;DHT22;55069;51.568;4.656;2022-07-29T06:53:45;16.77;71.52
68257;DHT22;55069;51.568;4.656;2022-07-29T06:56:11;16.89;71.12
68257;DHT22;55069;51.568;4.656;2022-07-29T06:58:39;17.02;71.43
68257;DHT22;55069;51.568;4.656;2022-07-29T07:01:06;17.07;70.15
68257;DHT22;55069;51.568;4.656;2022-07-29T07:03:32;17.14;69.46
68257;DHT22;55069;51.568;4.656;2022-07-29T07:05:59;17.21;69.88
68257;DHT22;55069;51.568;4.656;2022-07-29T07:08:25;17.34;69.07
68257;DHT22;55069;51.568;4.656;2022-07-29T07:10:52;17.47;68.44
68257;DHT22;55069;51.568;4.656;2022-07-29T07:13:18;17.52;69.07
68257;DHT22;55069;51.568;4.656;2022-07-29T07:15:45;17.64;68.35
68257;DHT22;55069;51.568;4.656;2022-07-29T07:18:10;17.74;68.30
68257;DHT22;55069;51.568;4.656;2022-07-29T07:20:36;17.76;68.62
68257;DHT22;55069;51.568;4.656;2022-07-29T07:23:02;17.68;68.23
68257;DHT22;55069;51.568;4.656;2022-07-29T07:25:28;17.65;68.81
68257;DHT22;55069;51.568;4.656;2022-07-29T07:27:54;17.72;68.63
68257;DHT22;55069;51.568;4.656;2022-07-29T07:30:20;17.78;68.42
68257;DHT22;55069;51.568;4.656;2022-07-29T07:32:46;17.85;67.61
68257;DHT22;55069;51.568;4.656;2022-07-29T07:35:12;17.96;67.19
68257;DHT22;55069;51.568;4.656;2022-07-29T07:37:38;18.03;66.32
68257;DHT22;55069;51.568;4.656;2022-07-29T07:40:06;18.12;67.75
68257;DHT22;55069;51.568;4.656;2022-07-29T07:42:32;18.24;66.97
68257;DHT22;55069;51.568;4.656;2022-07-29T07:44:59;18.38;67.48
68257;DHT22;55069;51.568;4.656;2022-07-29T07:47:25;18.40;65.27
68257;DHT22;55069;51.568;4.656;2022-07-29T07:49:52;18.47;65.01
68257;DHT22;55069;51.568;4.656;2022-07-29T07:52:20;18.55;65.10
68257;DHT22;55069;51.568;4.656;2022-07-29T07:54:46;18.71;65.21
68257;DHT22;55069;51.568;4.656;2022-07-29T07:57:13;18.84;64.79
68257;DHT22;55069;51.568;4.656;2022-07-29T07:59:39;18.92;64.48
68257;DHT22;55069;51.568;4.656;2022-07-29T08:02:05;19.03;64.08
68257;DHT22;55069;51.568;4.656;2022-07-29T08:04:32;19.05;64.37
68257;DHT22;55069;51.568;4.656;2022-07-29T08:06:58;19.16;64.32
68257;DHT22;55069;51.568;4.656;2022-07-29T08:09:25;19.29;65.12
68257;DHT22;55069;51.568;4.656;2022-07-29T08:11:52;19.45;64.57
68257;DHT22;55069;51.568;4.656;2022-07-29T08:14:18;19.47;63.47
68257;DHT22;55069;51.568;4.656;2022-07-29T08:16:44;19.54;64.01
68257;DHT22;55069;51.568;4.656;2022-07-29T08:19:10;19.63;64.44
68257;DHT22;55069;51.568;4.656;2022-07-29T08:21:37;19.77;64.96
68257;DHT22;55069;51.568;4.656;2022-07-29T08:24:03;19.94;63.72
68257;DHT22;55069;51.568;4.656;2022-07-29T08:26:47;20.04;63.41
68257;DHT22;55069;51.568;4.656;2022-07-29T08:29:13;20.12;62.34
68257;DHT22;55069;51.568;4.656;2022-07-29T08:31:40;20.22;63.09
68257;DHT22;55069;51.568;4.656;2022-07-29T08:34:06;20.29;62.36
68257;DHT22;55069;51.568;4.656;2022-07-29T08:36:32;20.23;61.61
68257;DHT22;55069;51.568;4.656;2022-07-29T08:38:59;20.34;61.21
68257;DHT22;55069;51.568;4.656;2022-07-29T08:41:25;20.47;61.15
68257;DHT22;55069;51.568;4.656;2022-07-29T08:43:51;20.61;61.67
68257;DHT22;55069;51.568;4.656;2022-07-29T08:46:18;20.67;61.10
68257;DHT22;55069;51.568;4.656;2022-07-29T08:48:45;20.64;60.07
68257;DHT22;55069;51.568;4.656;2022-07-29T08:51:18;20.71;60.28
68257;DHT22;55069;51.568;4.656;2022-07-29T08:53:47;20.91;59.58
68257;DHT22;55069;51.568;4.656;2022-07-29T08:56:18;20.83;59.76
68257;DHT22;55069;51.568;4.656;2022-07-29T08:58:46;20.77;60.03
68257;DHT22;55069;51.568;4.656;2022-07-29T09:01:14;21.04;60.98
68257;DHT22;55069;51.568;4.656;2022-07-29T09:03:43;21.18;60.89
68257;DHT22;55069;51.568;4.656;2022-07-29T09:06:17;21.32;59.33
68257;DHT22;55069;51.568;4.656;2022-07-29T09:08:44;21.29;58.69
68257;DHT22;55069;51.568;4.656;2022-07-29T09:11:10;21.46;58.16
68257;DHT22;55069;51.568;4.656;2022-07-29T09:13:37;21.63;59.06
68257;DHT22;55069;51.568;4.656;2022-07-29T09:16:03;21.83;57.38
68257;DHT22;55069;51.568;4.656;2022-07-29T09:18:40;21.83;55.94
68257;DHT22;55069;51.568;4.656;2022-07-29T09:21:08;22.04;56.67
68257;DHT22;55069;51.568;4.656;2022-07-29T09:26:36;22.20;54.87
68257;DHT22;55069;51.568;4.656;2022-07-29T09:31:43;22.13;56.29
68257;DHT22;55069;51.568;4.656;2022-07-29T09:34:10;22.17;55.52
68257;DHT22;55069;51.568;4.656;2022-07-29T09:36:47;22.28;55.02
68257;DHT22;55069;51.568;4.656;2022-07-29T09:39:14;22.40;54.56
68257;DHT22;55069;51.568;4.656;2022-07-29T09:41:50;22.44;56.03
68257;DHT22;55069;51.568;4.656;2022-07-29T09:44:19;22.62;55.58
68257;DHT22;55069;51.568;4.656;2022-07-29T09:47:01;22.80;55.30
68257;DHT22;55069;51.568;4.656;2022-07-29T09:49:34;22.92;55.01
68257;DHT22;55069;51.568;4.656;2022-07-29T09:52:02;22.89;53.83
68257;DHT22;55069;51.568;4.656;2022-07-29T09:54:28;22.88;54.05
68257;DHT22;55069;51.568;4.656;2022-07-29T09:56:59;22.90;53.07
68257;DHT22;55069;51.568;4.656;2022-07-29T09:59:25;23.11;53.55
68257;DHT22;55069;51.568;4.656;2022-07-29T10:01:52;23.30;52.85
68257;DHT22;55069;51.568;4.656;2022-07-29T10:04:18;23.36;52.46
68257;DHT22;55069;51.568;4.656;2022-07-29T10:07:01;23.44;52.42
68257;DHT22;55069;51.568;4.656;2022-07-29T10:09:27;23.47;53.18
68257;DHT22;55069;51.568;4.656;2022-07-29T10:12:09;23.57;52.72
68257;DHT22;55069;51.568;4.656;2022-07-29T10:14:37;23.76;52.08
68257;DHT22;55069;51.568;4.656;2022-07-29T10:17:04;23.83;52.20
68257;DHT22;55069;51.568;4.656;2022-07-29T10:19:31;23.65;51.62
68257;DHT22;55069;51.568;4.656;2022-07-29T10:21:58;23.82;51.10
68257;DHT22;55069;51.568;4.656;2022-07-29T10:24:26;24.06;49.46
68257;DHT22;55069;51.568;4.656;2022-07-29T10:26:57;24.26;50.77
68257;DHT22;55069;51.568;4.656;2022-07-29T10:29:24;24.37;49.10
68257;DHT22;55069;51.568;4.656;2022-07-29T10:31:58;24.17;49.01
68257;DHT22;55069;51.568;4.656;2022-07-29T10:34:44;24.14;48.42
68257;DHT22;55069;51.568;4.656;2022-07-29T10:37:39;24.23;49.03
68257;DHT22;55069;51.568;4.656;2022-07-29T10:43:14;24.64;48.70
68257;DHT22;55069;51.568;4.656;2022-07-29T10:45:45;24.71;47.25
68257;DHT22;55069;51.568;4.656;2022-07-29T10:48:12;24.51;47.59
68257;DHT22;55069;51.568;4.656;2022-07-29T10:53:25;24.74;47.25
68257;DHT22;55069;51.568;4.656;2022-07-29T10:56:43;24.71;46.52
68257;DHT22;55069;51.568;4.656;2022-07-29T11:01:50;24.74;44.97
68257;DHT22;55069;51.568;4.656;2022-07-29T11:07:11;25.39;46.76
68257;DHT22;55069;51.568;4.656;2022-07-29T11:09:38;25.27;44.46
68257;DHT22;55069;51.568;4.656;2022-07-29T11:15:05;25.45;45.35
68257;DHT22;55069;51.568;4.656;2022-07-29T11:23:00;25.39;44.25
68257;DHT22;55069;51.568;4.656;2022-07-29T11:25:26;25.49;43.64
68257;DHT22;55069;51.568;4.656;2022-07-29T11:27:53;25.43;44.63
68257;DHT22;55069;51.568;4.656;2022-07-29T11:30:19;25.45;44.71
68257;DHT22;55069;51.568;4.656;2022-07-29T11:32:46;25.47;43.42
68257;DHT22;55069;51.568;4.656;2022-07-29T11:35:18;25.75;43.96
68257;DHT22;55069;51.568;4.656;2022-07-29T11:37:47;25.92;44.01
68257;DHT22;55069;51.568;4.656;2022-07-29T11:40:32;25.80;43.40
68257;DHT22;55069;51.568;4.656;2022-07-29T11:42:58;25.95;44.22
68257;DHT22;55069;51.568;4.656;2022-07-29T11:45:25;26.11;43.75
68257;DHT22;55069;51.568;4.656;2022-07-29T11:47:56;26.33;42.50
68257;DHT22;55069;51.568;4.656;2022-07-29T11:50:32;26.32;43.12
68257;DHT22;55069;51.568;4.656;2022-07-29T11:52:59;26.09;41.88
68257;DHT22;55069;51.568;4.656;2022-07-29T11:55:25;26.05;42.02
68257;DHT22;55069;51.568;4.656;2022-07-29T11:57:55;26.04;40.83
68257;DHT22;55069;51.568;4.656;2022-07-29T12:02:51;26.12;42.18
68257;DHT22;55069;51.568;4.656;2022-07-29T12:05:17;26.19;41.54
68257;DHT22;55069;51.568;4.656;2022-07-29T12:07:42;26.53;41.76
68257;DHT22;55069;51.568;4.656;2022-07-29T12:10:08;26.48;40.31
68257;DHT22;55069;51.568;4.656;2022-07-29T12:12:34;26.31;41.14
68257;DHT22;55069;51.568;4.656;2022-07-29T12:15:14;26.24;40.29
68257;DHT22;55069;51.568;4.656;2022-07-29T12:17:40;26.46;39.89
68257;DHT22;55069;51.568;4.656;2022-07-29T12:20:06;26.32;39.86
68257;DHT22;55069;51.568;4.656;2022-07-29T12:22:33;26.73;39.39
68257;DHT22;55069;51.568;4.656;2022-07-29T12:25:10;26.69;39.34
68257;DHT22;55069;51.568;4.656;2022-07-29T12:27:37;26.50;40.89
68257;DHT22;55069;51.568;4.656;2022-07-29T12:30:12;27.04;39.76
68257;DHT22;55069;51.568;4.656;2022-07-29T12:32:48;27.31;39.33
68257;DHT22;55069;51.568;4.656;2022-07-29T12:35:16;27.46;38.63
68257;DHT22;55069;51.568;4.656;2022-07-29T12:37:45;27.39;38.29
68257;DHT22;55069;51.568;4.656;2022-07-29T12:40:14;27.21;39.86
68257;DHT22;55069;51.568;4.656;2022-07-29T12:45:35;26.53;39.58
68257;DHT22;55069;51.568;4.656;2022-07-29T12:48:01;26.59;40.03
68257;DHT22;55069;51.568;4.656;2022-07-29T12:50:28;26.75;40.28
68257;DHT22;55069;51.568;4.656;2022-07-29T12:52:53;26.73;40.41
68257;DHT22;55069;51.568;4.656;2022-07-29T12:55:39;26.91;40.41
68257;DHT22;55069;51.568;4.656;2022-07-29T12:58:05;26.97;39.33
68257;DHT22;55069;51.568;4.656;2022-07-29T13:00:30;27.33;39.57
68257;DHT22;55069;51.568;4.656;2022-07-29T13:02:58;27.62;38.80
68257;DHT22;55069;51.568;4.656;2022-07-29T13:05:24;27.55;37.37
68257;DHT22;55069;51.568;4.656;2022-07-29T13:08:15;27.82;37.68
68257;DHT22;55069;51.568;4.656;2022-07-29T13:10:41;27.30;37.59
68257;DHT22;55069;51.568;4.656;2022-07-29T13:13:14;27.61;37.80
68257;DHT22;55069;51.568;4.656;2022-07-29T13:15:44;27.31;37.20
68257;DHT22;55069;51.568;4.656;2022-07-29T13:18:33;27.63;37.44
68257;DHT22;55069;51.568;4.656;2022-07-29T13:21:14;27.73;38.84
68257;DHT22;55069;51.568;4.656;2022-07-29T13:23:41;27.41;36.97
68257;DHT22;55069;51.568;4.656;2022-07-29T13:26:11;27.27;37.42
68257;DHT22;55069;51.568;4.656;2022-07-29T13:28:37;27.23;37.78
68257;DHT22;55069;51.568;4.656;2022-07-29T13:31:04;27.56;37.16
68257;DHT22;55069;51.568;4.656;2022-07-29T13:33:30;26.94;40.21
68257;DHT22;55069;51.568;4.656;2022-07-29T13:35:56;27.38;38.55
68257;DHT22;55069;51.568;4.656;2022-07-29T13:38:22;27.48;38.77
68257;DHT22;55069;51.568;4.656;2022-07-29T13:40:49;26.96;37.66
68257;DHT22;55069;51.568;4.656;2022-07-29T13:43:15;26.67;37.60
68257;DHT22;55069;51.568;4.656;2022-07-29T13:45:40;27.00;39.38
68257;DHT22;55069;51.568;4.656;2022-07-29T13:48:06;27.00;38.62
68257;DHT22;55069;51.568;4.656;2022-07-29T13:50:32;27.30;40.61
68257;DHT22;55069;51.568;4.656;2022-07-29T13:52:58;26.79;38.46
68257;DHT22;55069;51.568;4.656;2022-07-29T13:55:24;26.88;38.92
68257;DHT22;55069;51.568;4.656;2022-07-29T13:57:52;27.33;39.00
68257;DHT22;55069;51.568;4.656;2022-07-29T14:00:18;27.42;37.89
68257;DHT22;55069;51.568;4.656;2022-07-29T14:02:44;27.70;37.19
68257;DHT22;55069;51.568;4.656;2022-07-29T14:05:10;27.66;37.84
68257;DHT22;55069;51.568;4.656;2022-07-29T14:07:37;27.41;37.13
68257;DHT22;55069;51.568;4.656;2022-07-29T14:10:04;26.84;38.19
68257;DHT22;55069;51.568;4.656;2022-07-29T14:12:31;27.30;37.35
68257;DHT22;55069;51.568;4.656;2022-07-29T14:14:56;27.73;38.59
68257;DHT22;55069;51.568;4.656;2022-07-29T14:17:24;27.99;37.03
68257;DHT22;55069;51.568;4.656;2022-07-29T14:19:50;27.42;37.76
68257;DHT22;55069;51.568;4.656;2022-07-29T14:22:16;27.35;38.88
68257;DHT22;55069;51.568;4.656;2022-07-29T14:24:44;27.21;38.80
68257;DHT22;55069;51.568;4.656;2022-07-29T14:27:10;27.21;38.53
68257;DHT22;55069;51.568;4.656;2022-07-29T14:29:37;27.35;39.67
68257;DHT22;55069;51.568;4.656;2022-07-29T14:32:04;26.83;39.31
68257;DHT22;55069;51.568;4.656;2022-07-29T14:34:29;26.90;39.52
68257;DHT22;55069;51.568;4.656;2022-07-29T14:36:55;26.91;39.10
68257;DHT22;55069;51.568;4.656;2022-07-29T14:39:22;27.01;39.51
68257;DHT22;55069;51.568;4.656;2022-07-29T14:41:51;27.45;38.73
68257;DHT22;55069;51.568;4.656;2022-07-29T14:44:17;27.62;39.31
68257;DHT22;55069;51.568;4.656;2022-07-29T14:46:43;27.54;38.73
68257;DHT22;55069;51.568;4.656;2022-07-29T14:49:09;27.27;40.98
68257;DHT22;55069;51.568;4.656;2022-07-29T14:51:35;27.44;40.00
68257;DHT22;55069;51.568;4.656;2022-07-29T14:54:01;26.97;40.79
68257;DHT22;55069;51.568;4.656;2022-07-29T14:56:27;27.11;39.15
68257;DHT22;55069;51.568;4.656;2022-07-29T14:58:56;27.66;39.96
68257;DHT22;55069;51.568;4.656;2022-07-29T15:01:23;27.81;37.86
68257;DHT22;55069;51.568;4.656;2022-07-29T15:03:50;27.79;37.86
68257;DHT22;55069;51.568;4.656;2022-07-29T15:06:16;28.06;37.52
68257;DHT22;55069;51.568;4.656;2022-07-29T15:08:44;28.28;36.85
68257;DHT22;55069;51.568;4.656;2022-07-29T15:11:10;28.03;37.65
68257;DHT22;55069;51.568;4.656;2022-07-29T15:13:35;28.01;38.14
68257;DHT22;55069;51.568;4.656;2022-07-29T15:16:01;28.13;36.52
68257;DHT22;55069;51.568;4.656;2022-07-29T15:18:27;27.11;37.16
68257;DHT22;55069;51.568;4.656;2022-07-29T15:20:53;26.80;38.36
68257;DHT22;55069;51.568;4.656;2022-07-29T15:23:19;27.30;38.17
68257;DHT22;55069;51.568;4.656;2022-07-29T15:25:45;27.56;37.41
68257;DHT22;55069;51.568;4.656;2022-07-29T15:28:10;27.55;38.31
68257;DHT22;55069;51.568;4.656;2022-07-29T15:30:36;27.61;37.80
68257;DHT22;55069;51.568;4.656;2022-07-29T15:33:09;27.51;37.68
68257;DHT22;55069;51.568;4.656;2022-07-29T15:35:36;28.03;37.92
68257;DHT22;55069;51.568;4.656;2022-07-29T15:38:01;28.36;36.33
68257;DHT22;55069;51.568;4.656;2022-07-29T15:40:27;27.92;36.29
68257;DHT22;55069;51.568;4.656;2022-07-29T15:42:53;28.36;37.70
68257;DHT22;55069;51.568;4.656;2022-07-29T15:45:19;28.24;36.86
68257;DHT22;55069;51.568;4.656;2022-07-29T15:47:47;28.24;37.12
68257;DHT22;55069;51.568;4.656;2022-07-29T15:50:13;28.10;36.74
68257;DHT22;55069;51.568;4.656;2022-07-29T15:52:44;28.41;35.78
68257;DHT22;55069;51.568;4.656;2022-07-29T15:55:10;27.63;37.82
68257;DHT22;55069;51.568;4.656;2022-07-29T15:57:36;27.86;37.05
68257;DHT22;55069;51.568;4.656;2022-07-29T16:00:03;28.09;36.65
68257;DHT22;55069;51.568;4.656;2022-07-29T16:02:33;27.70;37.77
68257;DHT22;55069;51.568;4.656;2022-07-29T16:04:59;28.27;36.51
68257;DHT22;55069;51.568;4.656;2022-07-29T16:07:24;27.58;37.48
68257;DHT22;55069;51.568;4.656;2022-07-29T16:09:50;28.22;37.87
68257;DHT22;55069;51.568;4.656;2022-07-29T16:12:16;28.07;36.20
68257;DHT22;55069;51.568;4.656;2022-07-29T16:14:42;28.06;37.79
68257;DHT22;55069;51.568;4.656;2022-07-29T16:17:08;27.86;37.03